Time;durP1;ratioP1;P1;durP2;ratioP2;P2;SDS_P1;SDS_P2;PMS_P1;PMS_P2;Temp;Humidity;BMP_temperature;BMP_pressure;BME280_temperature;BME280_humidity;BME280_pressure;Samples;Min_cycle;Max_cycle;Signal;HPM_P1;HPM_P2
2022/02/04 00:03:39;;;;;;;;;;;;;;;;;;1006340;29;1082;-38
2022/02/04 00:06:48;;;;;;;;;;;;;;;;;;1022757;29;977;-36
2022/02/04 00:20:30;;;;;;;;;;;;;;;;;;1018083;29;1167;-37
2022/02/04 00:23:18;;;;;;;;;;;;;;;;;;1030819;28;982;-34
2022/02/04 00:23:50;;;;;;;;;;;;;;;;;;1030687;28;1989;-36
2022/02/04 00:24:20;;;;;;;;;;;;;;;;;;1030772;28;898;-37
2022/02/04 00:24:51;;;;;;;;;;;;;;;;;;1030646;28;970;-36
2022/02/04 00:26:09;;;;;;;;;;;;;;;;;;1030830;28;810;-37
2022/02/04 00:26:48;;;;;;;;;;;;;;;;;;1030891;28;942;-38
2022/02/04 00:27:22;;;;;;;;;;;;;;;;;;1030677;28;890;-37
2022/02/04 00:27:55;;;;;;;;;;;;;;;;;;1030769;28;890;-36
2022/02/04 00:28:38;;;;;;;;;;;;;;;;;;1030815;28;1240;-38
2022/02/04 00:29:21;;;;;;;;;;;;;;;;;;1030749;28;969;-37
2022/02/04 00:30:26;;;;;;;;;;;;;;;;;;1030674;28;858;-36
2022/02/04 00:31:46;;;;;;;;;;;;;;;;;;1030852;28;1081;-37
2022/02/04 00:31:53;;;;;;;;;;;;;;;;;;1020154;28;1340;-34
2022/02/04 00:32:25;;;;;;;;;;;;;;;;;;1030637;28;1046;-35
2022/02/04 00:32:59;;;;;;;;;;;;;;;;;;1030748;28;879;-36
2022/02/04 00:33:32;;;;;;;;;;;;;;;;;;1030793;28;979;-37
2022/02/04 00:34:13;;;;;;;;;;;;;;;;;;1030568;28;807;-36
2022/02/04 00:34:49;;;;;;;;;;;;;;;;;;1030797;28;938;-36
2022/02/04 00:36:23;;;;;;;;;;;;;;;;;;1030938;28;1069;-35
2022/02/04 00:38:03;;;;;;;;;;;;;;;;;;1030770;28;1108;-36
2022/02/04 00:38:37;;;;;;;;;;;;;;;;;;1030634;28;890;-37
2022/02/04 00:39:12;;;;;;;;;;;;;;;;;;1030672;28;867;-37
2022/02/04 00:39:50;;;;;;;;;;;;;;;;;;1030733;28;1076;-37
2022/02/04 00:40:23;;;;;;;;;;;;;;;;;;1030657;28;902;-37
2022/02/04 00:41:00;;;;;;;;;;;;;;;;;;1030587;28;906;-38
2022/02/04 00:41:34;;;;;;;;;;;;;;;;;;1030796;28;1148;-38
2022/02/04 00:42:08;;;;;;;;;;;;;;;;;;1030692;28;942;-37
2022/02/04 00:42:39;;;;;;;;;;;;;;;;;;1030682;28;1145;-36
2022/02/04 00:43:13;;;;;;;;;;;;;;;;;;1026404;28;981;-36
2022/02/04 00:43:44;;;;;;;;;;;;;;;;;;1026094;28;1914;-37
2022/02/04 00:44:22;;;;;;;;;;;;;;;;;;1026494;28;784;-36
2022/02/04 00:45:00;;;;;;;;;;;;;;;;;;1028044;28;971;-35
2022/02/04 00:45:48;;;;;;;;;;;;;;;;;;1030581;28;915;-38
2022/02/04 00:46:26;;;;;;;;;;;;;;;;;;1031238;28;967;-35
2022/02/04 00:47:03;;;;;;;;;;;;;;;;;;1031409;28;974;-37
2022/02/04 00:47:35;;;;;;;;;;;;;;;;;;1031640;28;907;-35
2022/02/04 00:49:01;;;;;;;;;;;;;;;;;;1031423;28;950;-36
2022/02/04 00:50:00;;;;;;;;;;;;;;;;;;1031448;28;946;-37
2022/02/04 00:50:38;;;;;;;;;;;;;;;;;;1031418;28;800;-37
2022/02/04 00:52:36;;;;;;;;;;;;;;;;;;1031381;28;903;-35
2022/02/04 00:53:15;;;;;;;;;;;;;;;;;;1031570;28;930;-37
2022/02/04 00:55:26;;;;;;;;;;;;;;;;;;1031376;28;1002;-38
2022/02/04 01:13:40;;;;;;;;;;;;;;;;;;1031351;28;946;-38
2022/02/04 01:26:24;;;;;;;;;;;;;;;;;;1031312;28;883;-37
2022/02/04 01:26:56;;;;;;;;;;;;;;;;;;1031367;28;949;-37
2022/02/04 01:27:26;;;;;;;;;;;;;;;;;;1031544;28;959;-36
2022/02/04 01:27:57;;;;;;;;;;;;;;;;;;1031288;28;941;-38
2022/02/04 01:28:28;;;;;;;;;;;;;;;;;;1031403;28;1193;-35
2022/02/04 01:28:58;;;;;;;;;;;;;;;;;;1031327;28;875;-38
2022/02/04 01:29:35;;;;;;;;;;;;;;;;;;1031370;28;984;-37
2022/02/04 01:30:17;;;;;;;;;;;;;;;;;;1031480;28;911;-36
2022/02/04 01:30:47;;;;;;;;;;;;;;;;;;1031114;28;1033;-36
2022/02/04 01:31:20;;;;;;;;;;;;;;;;;;1031409;28;981;-37
2022/02/04 01:31:50;;;;;;;;;;;;;;;;;;1031371;28;983;-38
2022/02/04 01:32:21;;;;;;;;;;;;;;;;;;1031305;28;922;-38
2022/02/04 01:32:51;;;;;;;;;;;;;;;;;;1031500;28;1085;-39
2022/02/04 01:33:22;;;;;;;;;;;;;;;;;;1031261;28;997;-38
2022/02/04 01:33:54;;;;;;;;;;;;;;;;;;1031430;28;954;-39
2022/02/04 01:34:25;;;;;;;;;;;;;;;;;;1031341;28;974;-38
2022/02/04 01:34:55;;;;;;;;;;;;;;;;;;1031372;28;882;-38
2022/02/04 01:35:26;;;;;;;;;;;;;;;;;;1031462;28;1080;-38
2022/02/04 01:35:56;;;;;;;;;;;;;;;;;;1031212;28;874;-38
2022/02/04 01:36:27;;;;;;;;;;;;;;;;;;1031463;28;846;-38
2022/02/04 01:36:57;;;;;;;;;;;;;;;;;;1031313;28;894;-38
2022/02/04 01:37:29;;;;;;;;;;;;;;;;;;1031292;28;907;-39
2022/02/04 01:37:59;;;;;;;;;;;;;;;;;;1031523;28;957;-37
2022/02/04 01:38:30;;;;;;;;;;;;;;;;;;1031056;28;903;-38
2022/02/04 01:39:00;;;;;;;;;;;;;;;;;;1031570;28;890;-38
2022/02/04 01:39:31;;;;;;;;;;;;;;;;;;1031282;28;1749;-34
2022/02/04 01:40:01;;;;;;;;;;;;;;;;;;1031351;28;823;-38
2022/02/04 01:40:32;;;;;;;;;;;;;;;;;;1031299;28;1599;-38
2022/02/04 01:41:03;;;;;;;;;;;;;;;;;;1031207;28;902;-35
2022/02/04 01:41:34;;;;;;;;;;;;;;;;;;1031534;28;976;-38
2022/02/04 01:42:04;;;;;;;;;;;;;;;;;;1031315;28;925;-38
2022/02/04 01:42:35;;;;;;;;;;;;;;;;;;1031142;28;1037;-39
2022/02/04 01:43:05;;;;;;;;;;;;;;;;;;1031439;28;931;-37
2022/02/04 01:43:36;;;;;;;;;;;;;;;;;;1026813;28;891;-38
2022/02/04 01:44:22;;;;;;;;;;;;;;;;;;1026946;28;1919;-39
2022/02/04 01:44:53;;;;;;;;;;;;;;;;;;1026962;28;994;-38
2022/02/04 01:45:23;;;;;;;;;;;;;;;;;;1029235;28;992;-36
2022/02/04 01:45:55;;;;;;;;;;;;;;;;;;1031441;28;1135;-38
2022/02/04 01:46:26;;;;;;;;;;;;;;;;;;1031159;28;974;-38
2022/02/04 01:46:56;;;;;;;;;;;;;;;;;;1031399;28;933;-38
2022/02/04 01:47:27;;;;;;;;;;;;;;;;;;1031366;28;1011;-38
2022/02/04 01:47:57;;;;;;;;;;;;;;;;;;1031225;28;803;-38
2022/02/04 01:48:28;;;;;;;;;;;;;;;;;;1031440;28;954;-38
2022/02/04 01:48:58;;;;;;;;;;;;;;;;;;1031083;28;856;-38
2022/02/04 01:49:30;;;;;;;;;;;;;;;;;;1031303;28;938;-39
2022/02/04 01:50:00;;;;;;;;;;;;;;;;;;1031460;28;997;-39
2022/02/04 01:50:31;;;;;;;;;;;;;;;;;;1031017;28;886;-37
2022/02/04 01:51:03;;;;;;;;;;;;;;;;;;1031462;28;986;-36
2022/02/04 01:51:33;;;;;;;;;;;;;;;;;;1031063;28;934;-38
2022/02/04 01:52:04;;;;;;;;;;;;;;;;;;1031422;28;955;-38
2022/02/04 01:52:34;;;;;;;;;;;;;;;;;;1031366;28;963;-36
2022/02/04 01:53:05;;;;;;;;;;;;;;;;;;1031090;28;844;-38
2022/02/04 01:53:35;;;;;;;;;;;;;;;;;;1031364;28;930;-38
2022/02/04 01:54:06;;;;;;;;;;;;;;;;;;1031283;28;921;-38
2022/02/04 01:54:37;;;;;;;;;;;;;;;;;;1031528;28;1037;-37
2022/02/04 01:55:07;;;;;;;;;;;;;;;;;;1031044;28;946;-39
2022/02/04 01:55:39;;;;;;;;;;;;;;;;;;1031336;28;926;-38
2022/02/04 01:56:11;;;;;;;;;;;;;;;;;;1031302;28;1145;-36
2022/02/04 01:56:42;;;;;;;;;;;;;;;;;;1031196;28;902;-38
2022/02/04 01:57:12;;;;;;;;;;;;;;;;;;1031196;28;1001;-38
2022/02/04 01:57:43;;;;;;;;;;;;;;;;;;1031054;28;976;-38
2022/02/04 01:58:13;;;;;;;;;;;;;;;;;;1030805;28;883;-38
2022/02/04 01:58:44;;;;;;;;;;;;;;;;;;1031460;28;910;-36
2022/02/04 01:59:14;;;;;;;;;;;;;;;;;;1031106;28;898;-38
2022/02/04 01:59:45;;;;;;;;;;;;;;;;;;1031327;28;1395;-35
2022/02/04 02:00:15;;;;;;;;;;;;;;;;;;1026640;28;1027;-37
2022/02/04 02:00:46;;;;;;;;;;;;;;;;;;1027023;28;866;-38
2022/02/04 02:01:17;;;;;;;;;;;;;;;;;;1026987;28;992;-35
2022/02/04 02:01:47;;;;;;;;;;;;;;;;;;1026961;28;957;-38
2022/02/04 02:02:17;;;;;;;;;;;;;;;;;;1031362;28;960;-37
2022/02/04 02:02:49;;;;;;;;;;;;;;;;;;1031160;28;934;-39
2022/02/04 02:03:20;;;;;;;;;;;;;;;;;;1031421;28;934;-38
2022/02/04 02:03:50;;;;;;;;;;;;;;;;;;1031146;28;2041;-39
2022/02/04 02:04:20;;;;;;;;;;;;;;;;;;1031322;28;796;-37
2022/02/04 02:04:51;;;;;;;;;;;;;;;;;;1031340;28;985;-37
2022/02/04 02:05:21;;;;;;;;;;;;;;;;;;1031207;28;811;-38
2022/02/04 02:05:53;;;;;;;;;;;;;;;;;;1031351;28;956;-38
2022/02/04 02:06:46;;;;;;;;;;;;;;;;;;1031047;28;1013;-37
2022/02/04 02:07:20;;;;;;;;;;;;;;;;;;1031177;28;898;-38
2022/02/04 02:07:51;;;;;;;;;;;;;;;;;;1031163;28;1009;-39
2022/02/04 02:08:21;;;;;;;;;;;;;;;;;;1031356;28;915;-39
2022/02/04 02:08:52;;;;;;;;;;;;;;;;;;1031057;28;974;-39
2022/02/04 02:09:28;;;;;;;;;;;;;;;;;;1031254;28;954;-39
2022/02/04 02:10:06;;;;;;;;;;;;;;;;;;1031152;28;896;-35
2022/02/04 02:10:37;;;;;;;;;;;;;;;;;;1031138;28;961;-37
2022/02/04 02:11:09;;;;;;;;;;;;;;;;;;1031268;28;1085;-38
2022/02/04 02:11:40;;;;;;;;;;;;;;;;;;1031071;28;938;-38
2022/02/04 02:12:11;;;;;;;;;;;;;;;;;;1031273;28;1009;-37
2022/02/04 02:14:04;;;;;;;;;;;;;;;;;;1030981;28;922;-37
2022/02/04 02:14:37;;;;;;;;;;;;;;;;;;1031427;28;1081;-38
2022/02/04 02:15:19;;;;;;;;;;;;;;;;;;1031043;28;1356;-37
2022/02/04 02:33:06;;;;;;;;;;;;;;;;;;1031258;28;918;-37
2022/02/04 02:48:06;;;;;;;;;;;;;;;;;;1031100;28;882;-38
2022/02/04 02:49:02;;;;;;;;;;;;;;;;;;1031248;28;1080;-38
2022/02/04 02:52:20;;;;;;;;;;;;;;;;;;1031106;28;823;-35
2022/02/04 02:53:28;;;;;;;;;;;;;;;;;;1031206;28;977;-38
2022/02/04 02:54:21;;;;;;;;;;;;;;;;;;1030781;28;1380;-37
2022/02/04 02:57:10;;;;;;;;;;;;;;;;;;1030913;28;918;-37
2022/02/04 02:58:18;;;;;;;;;;;;;;;;;;1031204;28;838;-38
2022/02/04 02:58:58;;;;;;;;;;;;;;;;;;1030998;28;947;-35
2022/02/04 02:59:35;;;;;;;;;;;;;;;;;;1030964;28;879;-35
2022/02/04 03:01:28;;;;;;;;;;;;;;;;;;1022447;29;1023;-34
2022/02/04 03:01:58;;;;;;;;;;;;;;;;;;1027449;28;1005;-38
2022/02/04 03:02:29;;;;;;;;;;;;;;;;;;1031285;28;997;-35
2022/02/04 03:03:06;;;;;;;;;;;;;;;;;;1030766;28;1496;-35
2022/02/04 03:03:36;;;;;;;;;;;;;;;;;;1031134;28;1348;-37
2022/02/04 03:04:11;;;;;;;;;;;;;;;;;;1030891;28;1975;-37
2022/02/04 03:04:41;;;;;;;;;;;;;;;;;;1030868;28;967;-35
2022/02/04 03:05:12;;;;;;;;;;;;;;;;;;1031170;28;907;-37
2022/02/04 03:05:42;;;;;;;;;;;;;;;;;;1031016;28;924;-38
2022/02/04 03:06:12;;;;;;;;;;;;;;;;;;1031034;28;1084;-37
2022/02/04 03:06:43;;;;;;;;;;;;;;;;;;1031093;28;950;-37
2022/02/04 03:07:14;;;;;;;;;;;;;;;;;;1030760;28;1005;-38
2022/02/04 03:07:44;;;;;;;;;;;;;;;;;;1031065;28;1745;-35
2022/02/04 03:08:15;;;;;;;;;;;;;;;;;;1030928;28;935;-38
2022/02/04 03:08:45;;;;;;;;;;;;;;;;;;1030808;28;934;-38
2022/02/04 03:09:16;;;;;;;;;;;;;;;;;;1030975;28;950;-38
2022/02/04 03:09:46;;;;;;;;;;;;;;;;;;1030317;28;874;-34
2022/02/04 03:10:17;;;;;;;;;;;;;;;;;;1030925;28;1065;-37
2022/02/04 03:10:49;;;;;;;;;;;;;;;;;;1030596;28;943;-38
2022/02/04 03:11:19;;;;;;;;;;;;;;;;;;1031097;28;950;-37
2022/02/04 03:11:49;;;;;;;;;;;;;;;;;;1031141;28;1089;-37
2022/02/04 03:12:20;;;;;;;;;;;;;;;;;;1030867;28;814;-35
2022/02/04 03:12:50;;;;;;;;;;;;;;;;;;1031041;28;1124;-36
2022/02/04 03:13:22;;;;;;;;;;;;;;;;;;1030753;28;1596;-37
2022/02/04 03:13:52;;;;;;;;;;;;;;;;;;1031092;28;863;-37
2022/02/04 03:14:23;;;;;;;;;;;;;;;;;;1031035;28;986;-36
2022/02/04 03:14:53;;;;;;;;;;;;;;;;;;1030739;28;1241;-38
2022/02/04 03:15:24;;;;;;;;;;;;;;;;;;1031038;28;975;-37
2022/02/04 03:16:08;;;;;;;;;;;;;;;;;;1030826;28;977;-36
2022/02/04 03:16:39;;;;;;;;;;;;;;;;;;1027049;28;810;-36
2022/02/04 03:17:12;;;;;;;;;;;;;;;;;;1026939;28;945;-37
2022/02/04 03:17:44;;;;;;;;;;;;;;;;;;1026866;28;962;-35
2022/02/04 03:18:23;;;;;;;;;;;;;;;;;;1027067;28;814;-37
2022/02/04 03:18:55;;;;;;;;;;;;;;;;;;1027004;28;886;-37
2022/02/04 03:19:26;;;;;;;;;;;;;;;;;;1026745;28;1072;-38
2022/02/04 03:20:03;;;;;;;;;;;;;;;;;;1027070;28;854;-35
2022/02/04 03:20:44;;;;;;;;;;;;;;;;;;1026999;28;999;-38
2022/02/04 03:21:23;;;;;;;;;;;;;;;;;;1026785;28;900;-38
2022/02/04 03:21:53;;;;;;;;;;;;;;;;;;1026990;28;795;-36
2022/02/04 03:22:24;;;;;;;;;;;;;;;;;;1026997;28;970;-38
2022/02/04 03:22:55;;;;;;;;;;;;;;;;;;1026775;28;912;-38
2022/02/04 03:23:29;;;;;;;;;;;;;;;;;;1027020;28;930;-38
2022/02/04 03:24:08;;;;;;;;;;;;;;;;;;1026799;28;1915;-37
2022/02/04 03:24:40;;;;;;;;;;;;;;;;;;1027006;28;1063;-38
2022/02/04 03:25:13;;;;;;;;;;;;;;;;;;1027060;28;962;-36
2022/02/04 03:25:48;;;;;;;;;;;;;;;;;;1026974;28;932;-38
2022/02/04 03:26:31;;;;;;;;;;;;;;;;;;1026792;28;929;-39
2022/02/04 03:27:08;;;;;;;;;;;;;;;;;;1026917;28;949;-39
2022/02/04 03:27:44;;;;;;;;;;;;;;;;;;1027065;28;874;-38
2022/02/04 03:28:21;;;;;;;;;;;;;;;;;;1026956;28;931;-38
2022/02/04 03:28:51;;;;;;;;;;;;;;;;;;1030546;28;1401;-38
2022/02/04 03:29:29;;;;;;;;;;;;;;;;;;1030751;28;1081;-39
2022/02/04 03:30:36;;;;;;;;;;;;;;;;;;1030898;28;1022;-38
2022/02/04 03:30:57;;;;;;;;;;;;;;;;;;1029666;28;1356;-38
2022/02/04 03:31:32;;;;;;;;;;;;;;;;;;1030798;28;958;-38
2022/02/04 03:32:08;;;;;;;;;;;;;;;;;;1030769;28;915;-38
2022/02/04 03:32:43;;;;;;;;;;;;;;;;;;1030948;28;1025;-38
2022/02/04 03:33:16;;;;;;;;;;;;;;;;;;1030841;28;897;-38
2022/02/04 03:33:47;;;;;;;;;;;;;;;;;;1030996;28;977;-38
2022/02/04 03:34:18;;;;;;;;;;;;;;;;;;1030856;28;954;-38
2022/02/04 03:34:48;;;;;;;;;;;;;;;;;;1030828;28;1022;-39
2022/02/04 03:35:21;;;;;;;;;;;;;;;;;;1030903;28;967;-37
2022/02/04 03:35:52;;;;;;;;;;;;;;;;;;1030767;28;887;-38
2022/02/04 03:36:22;;;;;;;;;;;;;;;;;;1030979;28;931;-37
2022/02/04 03:36:52;;;;;;;;;;;;;;;;;;1030884;28;908;-38
2022/02/04 03:37:23;;;;;;;;;;;;;;;;;;1030851;28;946;-38
2022/02/04 03:37:54;;;;;;;;;;;;;;;;;;1030948;28;1049;-37
2022/02/04 03:38:25;;;;;;;;;;;;;;;;;;1030700;28;966;-38
2022/02/04 03:38:55;;;;;;;;;;;;;;;;;;1031027;28;1000;-37
2022/02/04 03:39:25;;;;;;;;;;;;;;;;;;1026380;28;963;-38
2022/02/04 03:39:56;;;;;;;;;;;;;;;;;;1026645;28;1712;-36
2022/02/04 03:40:26;;;;;;;;;;;;;;;;;;1026308;28;1050;-39
2022/02/04 03:40:57;;;;;;;;;;;;;;;;;;1026608;28;1002;-38
2022/02/04 03:41:27;;;;;;;;;;;;;;;;;;1030910;28;1046;-37
2022/02/04 03:41:57;;;;;;;;;;;;;;;;;;1030936;28;950;-38
2022/02/04 03:42:29;;;;;;;;;;;;;;;;;;1030637;28;1053;-38
2022/02/04 03:42:59;;;;;;;;;;;;;;;;;;1030737;28;949;-37
2022/02/04 03:43:30;;;;;;;;;;;;;;;;;;1031048;28;816;-39
2022/02/04 03:44:00;;;;;;;;;;;;;;;;;;1030674;28;1910;-37
2022/02/04 03:44:32;;;;;;;;;;;;;;;;;;1030910;28;878;-39
2022/02/04 03:45:03;;;;;;;;;;;;;;;;;;1030768;28;1085;-38
2022/02/04 03:45:33;;;;;;;;;;;;;;;;;;1030872;28;947;-38
2022/02/04 03:46:05;;;;;;;;;;;;;;;;;;1030916;28;970;-38
2022/02/04 03:46:35;;;;;;;;;;;;;;;;;;1030850;28;977;-39
2022/02/04 03:47:06;;;;;;;;;;;;;;;;;;1030734;28;854;-39
2022/02/04 03:47:36;;;;;;;;;;;;;;;;;;1030982;28;1003;-39
2022/02/04 03:48:07;;;;;;;;;;;;;;;;;;1030560;28;907;-38
2022/02/04 03:48:38;;;;;;;;;;;;;;;;;;1031101;28;919;-38
2022/02/04 03:49:08;;;;;;;;;;;;;;;;;;1030628;28;950;-39
2022/02/04 03:49:38;;;;;;;;;;;;;;;;;;1030931;28;816;-37
2022/02/04 03:50:09;;;;;;;;;;;;;;;;;;1030959;28;927;-39
2022/02/04 03:50:40;;;;;;;;;;;;;;;;;;1030475;28;914;-38
2022/02/04 03:51:10;;;;;;;;;;;;;;;;;;1030984;28;927;-38
2022/02/04 03:51:40;;;;;;;;;;;;;;;;;;1030727;28;1748;-38
2022/02/04 03:52:10;;;;;;;;;;;;;;;;;;1031014;28;882;-39
2022/02/04 03:52:41;;;;;;;;;;;;;;;;;;1030783;28;979;-38
2022/02/04 03:53:16;;;;;;;;;;;;;;;;;;1030501;28;962;-37
2022/02/04 03:53:46;;;;;;;;;;;;;;;;;;1030893;28;947;-37
2022/02/04 03:54:16;;;;;;;;;;;;;;;;;;1030689;28;1001;-38
2022/02/04 03:54:47;;;;;;;;;;;;;;;;;;1030795;28;823;-38
2022/02/04 03:55:17;;;;;;;;;;;;;;;;;;1030878;28;981;-37
2022/02/04 03:55:47;;;;;;;;;;;;;;;;;;1030625;28;792;-36
2022/02/04 03:56:19;;;;;;;;;;;;;;;;;;1030932;28;1080;-38
2022/02/04 03:56:49;;;;;;;;;;;;;;;;;;1030518;28;1048;-38
2022/02/04 03:57:20;;;;;;;;;;;;;;;;;;1030918;28;918;-39
2022/02/04 03:57:50;;;;;;;;;;;;;;;;;;1030821;28;965;-38
2022/02/04 03:58:20;;;;;;;;;;;;;;;;;;1030596;28;883;-38
2022/02/04 03:58:51;;;;;;;;;;;;;;;;;;1030959;28;863;-38
2022/02/04 03:59:25;;;;;;;;;;;;;;;;;;1030593;28;859;-38
2022/02/04 03:59:55;;;;;;;;;;;;;;;;;;1030932;28;882;-36
2022/02/04 04:00:25;;;;;;;;;;;;;;;;;;1030641;28;958;-38
2022/02/04 04:00:56;;;;;;;;;;;;;;;;;;1030730;28;981;-37
2022/02/04 04:01:26;;;;;;;;;;;;;;;;;;1030828;28;949;-38
2022/02/04 04:01:56;;;;;;;;;;;;;;;;;;1030675;28;954;-38
2022/02/04 04:02:27;;;;;;;;;;;;;;;;;;1030640;28;986;-38
2022/02/04 04:02:57;;;;;;;;;;;;;;;;;;1030720;28;998;-38
2022/02/04 04:03:28;;;;;;;;;;;;;;;;;;1030697;28;942;-38
2022/02/04 04:03:58;;;;;;;;;;;;;;;;;;1030653;28;1934;-38
2022/02/04 04:04:32;;;;;;;;;;;;;;;;;;1030730;28;942;-36
2022/02/04 04:05:03;;;;;;;;;;;;;;;;;;1030674;28;1672;-38
2022/02/04 04:05:37;;;;;;;;;;;;;;;;;;1030588;28;879;-38
2022/02/04 04:06:09;;;;;;;;;;;;;;;;;;1030603;28;926;-39
2022/02/04 04:06:39;;;;;;;;;;;;;;;;;;1030875;28;1070;-36
2022/02/04 04:07:10;;;;;;;;;;;;;;;;;;1030776;28;871;-37
2022/02/04 04:07:47;;;;;;;;;;;;;;;;;;1030668;28;1225;-36
2022/02/04 04:08:18;;;;;;;;;;;;;;;;;;1030351;28;994;-38
2022/02/04 04:08:52;;;;;;;;;;;;;;;;;;1030368;28;942;-36
2022/02/04 04:09:23;;;;;;;;;;;;;;;;;;1030372;28;1013;-38
2022/02/04 04:10:00;;;;;;;;;;;;;;;;;;1030329;28;1005;-36
2022/02/04 04:10:38;;;;;;;;;;;;;;;;;;1030595;28;799;-38
2022/02/04 04:11:08;;;;;;;;;;;;;;;;;;1030855;28;1076;-39
2022/02/04 04:11:45;;;;;;;;;;;;;;;;;;1030289;28;918;-38
2022/02/04 04:12:17;;;;;;;;;;;;;;;;;;1030711;28;882;-36
2022/02/04 04:12:48;;;;;;;;;;;;;;;;;;1030694;28;966;-38
2022/02/04 04:13:18;;;;;;;;;;;;;;;;;;1030540;28;902;-37
2022/02/04 04:13:50;;;;;;;;;;;;;;;;;;1030863;28;947;-37
2022/02/04 04:14:20;;;;;;;;;;;;;;;;;;1030352;28;887;-39
2022/02/04 04:14:53;;;;;;;;;;;;;;;;;;1030732;28;1276;-37
2022/02/04 04:15:24;;;;;;;;;;;;;;;;;;1030607;28;958;-36
2022/02/04 04:15:55;;;;;;;;;;;;;;;;;;1030545;28;946;-37
2022/02/04 04:16:26;;;;;;;;;;;;;;;;;;1030614;28;1098;-38
2022/02/04 04:16:56;;;;;;;;;;;;;;;;;;1030654;28;1022;-38
2022/02/04 04:17:26;;;;;;;;;;;;;;;;;;1030690;28;875;-38
2022/02/04 04:17:56;;;;;;;;;;;;;;;;;;1030740;28;956;-38
2022/02/04 04:18:27;;;;;;;;;;;;;;;;;;1030573;28;841;-36
2022/02/04 04:18:57;;;;;;;;;;;;;;;;;;1030756;28;962;-38
2022/02/04 04:19:27;;;;;;;;;;;;;;;;;;1030284;28;1584;-38
2022/02/04 04:19:58;;;;;;;;;;;;;;;;;;1030827;28;855;-37
2022/02/04 04:20:29;;;;;;;;;;;;;;;;;;1030588;28;879;-36
2022/02/04 04:21:01;;;;;;;;;;;;;;;;;;1030072;28;1064;-38
2022/02/04 04:21:31;;;;;;;;;;;;;;;;;;1030743;28;986;-38
2022/02/04 04:22:02;;;;;;;;;;;;;;;;;;1030330;28;1192;-37
2022/02/04 04:22:32;;;;;;;;;;;;;;;;;;1030898;28;964;-35
2022/02/04 04:23:02;;;;;;;;;;;;;;;;;;1030646;28;863;-38
2022/02/04 04:23:33;;;;;;;;;;;;;;;;;;1030585;28;923;-38
2022/02/04 04:24:03;;;;;;;;;;;;;;;;;;1030734;28;1934;-38
2022/02/04 04:24:33;;;;;;;;;;;;;;;;;;1030501;28;946;-38
2022/02/04 04:25:04;;;;;;;;;;;;;;;;;;1030724;28;1093;-38
2022/02/04 04:25:34;;;;;;;;;;;;;;;;;;1030547;28;1017;-37
2022/02/04 04:26:05;;;;;;;;;;;;;;;;;;1030657;28;970;-35
2022/02/04 04:26:35;;;;;;;;;;;;;;;;;;1030565;28;986;-38
2022/02/04 04:27:05;;;;;;;;;;;;;;;;;;1030691;28;942;-38
2022/02/04 04:27:36;;;;;;;;;;;;;;;;;;1030695;28;978;-36
2022/02/04 04:28:07;;;;;;;;;;;;;;;;;;1030574;28;966;-37
2022/02/04 04:28:40;;;;;;;;;;;;;;;;;;1030425;28;1657;-35
2022/02/04 04:29:11;;;;;;;;;;;;;;;;;;1030752;28;1022;-37
2022/02/04 04:29:41;;;;;;;;;;;;;;;;;;1030567;28;867;-36
2022/02/04 04:30:13;;;;;;;;;;;;;;;;;;1030781;28;895;-35
2022/02/04 04:30:43;;;;;;;;;;;;;;;;;;1030289;28;961;-38
2022/02/04 04:31:15;;;;;;;;;;;;;;;;;;1030767;28;904;-38
2022/02/04 04:31:45;;;;;;;;;;;;;;;;;;1030582;28;867;-37
2022/02/04 04:32:16;;;;;;;;;;;;;;;;;;1030752;28;950;-38
2022/02/04 04:32:46;;;;;;;;;;;;;;;;;;1030532;28;879;-38
2022/02/04 04:33:17;;;;;;;;;;;;;;;;;;1030717;28;871;-37
2022/02/04 04:33:47;;;;;;;;;;;;;;;;;;1030562;28;891;-38
2022/02/04 04:34:18;;;;;;;;;;;;;;;;;;1030607;28;919;-38
2022/02/04 04:34:48;;;;;;;;;;;;;;;;;;1030866;28;851;-34
2022/02/04 04:35:19;;;;;;;;;;;;;;;;;;1030625;28;982;-38
2022/02/04 04:35:50;;;;;;;;;;;;;;;;;;1030724;28;895;-38
2022/02/04 04:36:21;;;;;;;;;;;;;;;;;;1030694;28;1701;-38
2022/02/04 04:36:52;;;;;;;;;;;;;;;;;;1030531;28;962;-37
2022/02/04 04:37:24;;;;;;;;;;;;;;;;;;1030766;28;1056;-36
2022/02/04 04:38:37;;;;;;;;;;;;;;;;;;1030641;28;855;-38
2022/02/04 04:39:16;;;;;;;;;;;;;;;;;;1030645;28;882;-38
2022/02/04 04:40:02;;;;;;;;;;;;;;;;;;1030754;28;977;-38
2022/02/04 04:41:34;;;;;;;;;;;;;;;;;;1030694;28;949;-38
2022/02/04 04:42:15;;;;;;;;;;;;;;;;;;1030125;28;1355;-37
2022/02/04 04:43:08;;;;;;;;;;;;;;;;;;1026176;28;618;-36
2022/02/04 04:44:55;;;;;;;;;;;;;;;;;;1026397;28;1910;-38
2022/02/04 04:45:45;;;;;;;;;;;;;;;;;;1030467;28;1463;-37
2022/02/04 04:46:43;;;;;;;;;;;;;;;;;;1030681;28;1368;-38
2022/02/04 05:26:38;;;;;;;;;;;;;;;;;;1026701;28;850;-37
2022/02/04 05:28:11;;;;;;;;;;;;;;;;;;1026490;28;864;-37
2022/02/04 05:29:24;;;;;;;;;;;;;;;;;;1030477;28;989;-38
2022/02/04 05:29:54;;;;;;;;;;;;;;;;;;1030505;28;917;-37
2022/02/04 05:30:24;;;;;;;;;;;;;;;;;;1030510;28;878;-38
2022/02/04 05:30:55;;;;;;;;;;;;;;;;;;1030514;28;958;-37
2022/02/04 05:31:25;;;;;;;;;;;;;;;;;;1030574;28;808;-38
2022/02/04 05:31:55;;;;;;;;;;;;;;;;;;1030574;28;1054;-37
2022/02/04 05:32:26;;;;;;;;;;;;;;;;;;1030436;28;890;-36
2022/02/04 05:32:56;;;;;;;;;;;;;;;;;;1030624;28;1044;-37
2022/02/04 05:33:27;;;;;;;;;;;;;;;;;;1031032;28;935;-38
2022/02/04 05:33:57;;;;;;;;;;;;;;;;;;1031500;28;898;-37
2022/02/04 05:34:27;;;;;;;;;;;;;;;;;;1026873;28;1242;-38
2022/02/04 05:35:00;;;;;;;;;;;;;;;;;;1026842;28;859;-35
2022/02/04 05:35:30;;;;;;;;;;;;;;;;;;1027227;28;986;-38
2022/02/04 05:36:04;;;;;;;;;;;;;;;;;;1026844;28;879;-38
2022/02/04 05:36:39;;;;;;;;;;;;;;;;;;1031512;28;933;-36
2022/02/04 05:37:11;;;;;;;;;;;;;;;;;;1031325;28;940;-37
2022/02/04 05:37:45;;;;;;;;;;;;;;;;;;1031093;28;878;-38
2022/02/04 05:38:17;;;;;;;;;;;;;;;;;;1031454;28;1641;-38
2022/02/04 05:38:49;;;;;;;;;;;;;;;;;;1031212;28;1007;-38
2022/02/04 05:39:24;;;;;;;;;;;;;;;;;;1031311;28;922;-38
2022/02/04 05:39:59;;;;;;;;;;;;;;;;;;1031184;28;1034;-37
2022/02/04 05:40:37;;;;;;;;;;;;;;;;;;1031212;28;957;-35
2022/02/04 05:41:09;;;;;;;;;;;;;;;;;;1031140;28;780;-38
2022/02/04 05:41:43;;;;;;;;;;;;;;;;;;1031334;28;962;-37
2022/02/04 05:42:20;;;;;;;;;;;;;;;;;;1031219;28;1058;-35
2022/02/04 05:43:01;;;;;;;;;;;;;;;;;;1031107;28;918;-35
2022/02/04 05:43:34;;;;;;;;;;;;;;;;;;1031577;28;831;-38
2022/02/04 05:44:09;;;;;;;;;;;;;;;;;;1031169;28;1914;-37
2022/02/04 05:44:40;;;;;;;;;;;;;;;;;;1031146;28;894;-39
2022/02/04 05:45:18;;;;;;;;;;;;;;;;;;1031284;28;983;-36
2022/02/04 05:46:00;;;;;;;;;;;;;;;;;;1031379;28;989;-38
2022/02/04 05:46:40;;;;;;;;;;;;;;;;;;1031131;28;894;-36
2022/02/04 05:47:15;;;;;;;;;;;;;;;;;;1031258;28;831;-36
2022/02/04 05:47:49;;;;;;;;;;;;;;;;;;1031050;28;1023;-38
2022/02/04 05:48:20;;;;;;;;;;;;;;;;;;1031279;28;931;-38
2022/02/04 05:48:54;;;;;;;;;;;;;;;;;;1031210;28;859;-38
2022/02/04 05:49:27;;;;;;;;;;;;;;;;;;1031273;28;1035;-38
2022/02/04 05:50:19;;;;;;;;;;;;;;;;;;1031007;28;953;-39
2022/02/04 05:51:02;;;;;;;;;;;;;;;;;;1030996;28;926;-38
2022/02/04 05:51:44;;;;;;;;;;;;;;;;;;1031241;28;874;-39
2022/02/04 05:52:22;;;;;;;;;;;;;;;;;;1031414;28;922;-37
2022/02/04 05:53:30;;;;;;;;;;;;;;;;;;1031129;28;887;-35
2022/02/04 05:54:10;;;;;;;;;;;;;;;;;;1031219;28;985;-38
2022/02/04 05:54:58;;;;;;;;;;;;;;;;;;1031191;28;1032;-38
2022/02/04 05:56:27;;;;;;;;;;;;;;;;;;1031011;28;902;-38
2022/02/04 05:57:05;;;;;;;;;;;;;;;;;;1030774;28;1669;-37
2022/02/04 05:58:31;;;;;;;;;;;;;;;;;;1031314;28;981;-38
2022/02/04 05:58:40;;;;;;;;;;;;;;;;;;1025410;28;1067;-37
2022/02/04 06:01:12;;;;;;;;;;;;;;;;;;1031225;28;947;-37
2022/02/04 06:01:52;;;;;;;;;;;;;;;;;;1031224;28;982;-36
2022/02/04 06:02:41;;;;;;;;;;;;;;;;;;1031201;28;879;-38
2022/02/04 06:04:42;;;;;;;;;;;;;;;;;;1031082;28;839;-37
2022/02/04 06:07:32;;;;;;;;;;;;;;;;;;1030941;28;966;-38
2022/02/04 06:08:36;;;;;;;;;;;;;;;;;;1031005;28;799;-38
2022/02/04 06:09:43;;;;;;;;;;;;;;;;;;1030663;28;1575;-38
2022/02/04 06:10:28;;;;;;;;;;;;;;;;;;1030894;28;1346;-37
2022/02/04 06:12:14;;;;;;;;;;;;;;;;;;1031084;28;998;-37
2022/02/04 06:13:40;;;;;;;;;;;;;;;;;;1031191;28;878;-37
2022/02/04 06:15:11;;;;;;;;;;;;;;;;;;1031211;28;1384;-37
2022/02/04 06:22:20;;;;;;;;;;;;;;;;;;1026901;28;1303;-37
2022/02/04 06:22:51;;;;;;;;;;;;;;;;;;1027272;28;891;-37
2022/02/04 06:23:21;;;;;;;;;;;;;;;;;;1026983;28;952;-37
2022/02/04 06:23:52;;;;;;;;;;;;;;;;;;1026963;28;1968;-36
2022/02/04 06:24:22;;;;;;;;;;;;;;;;;;1027128;28;823;-38
2022/02/04 06:24:54;;;;;;;;;;;;;;;;;;1027143;28;978;-35
2022/02/04 06:25:24;;;;;;;;;;;;;;;;;;1027040;28;867;-37
2022/02/04 06:25:55;;;;;;;;;;;;;;;;;;1027233;28;926;-37
2022/02/04 06:26:25;;;;;;;;;;;;;;;;;;1026843;28;927;-37
2022/02/04 06:26:55;;;;;;;;;;;;;;;;;;1027353;28;955;-36
2022/02/04 06:27:26;;;;;;;;;;;;;;;;;;1026808;28;955;-37
2022/02/04 06:27:57;;;;;;;;;;;;;;;;;;1027276;28;942;-34
2022/02/04 06:28:28;;;;;;;;;;;;;;;;;;1026934;28;1173;-37
2022/02/04 06:28:59;;;;;;;;;;;;;;;;;;1027030;28;859;-36
2022/02/04 06:29:29;;;;;;;;;;;;;;;;;;1027187;28;990;-37
2022/02/04 06:30:00;;;;;;;;;;;;;;;;;;1026906;28;1001;-36
2022/02/04 06:30:30;;;;;;;;;;;;;;;;;;1027123;28;879;-37
2022/02/04 06:31:01;;;;;;;;;;;;;;;;;;1027101;28;915;-38
2022/02/04 06:31:31;;;;;;;;;;;;;;;;;;1027033;28;890;-37
2022/02/04 06:32:01;;;;;;;;;;;;;;;;;;1027181;28;955;-38
2022/02/04 06:32:32;;;;;;;;;;;;;;;;;;1026878;28;836;-35
2022/02/04 06:33:04;;;;;;;;;;;;;;;;;;1027068;28;856;-37
2022/02/04 06:33:34;;;;;;;;;;;;;;;;;;1027018;28;1064;-38